createdAt,value
2022-08-30T00:00:16.001Z,0.40
2022-08-30T00:02:44.508Z,0.50
2022-08-30T00:05:13.318Z,0.32
2022-08-30T00:07:41.175Z,0.60
2022-08-30T00:10:10.971Z,0.38
2022-08-30T00:12:38.950Z,0.50
2022-08-30T00:15:09.258Z,0.47
2022-08-30T00:17:39.676Z,0.25
2022-08-30T00:20:10.608Z,0.50
2022-08-30T00:25:07.200Z,0.35
2022-08-30T00:27:36.513Z,0.50
2022-08-30T00:30:05.299Z,0.40
2022-08-30T00:32:33.257Z,0.50
2022-08-30T00:35:01.178Z,0.45
2022-08-30T00:37:29.226Z,0.60
2022-08-30T00:39:57.165Z,0.25
2022-08-30T00:42:25.995Z,0.40
2022-08-30T00:44:55.286Z,0.40
2022-08-30T00:47:23.162Z,0.40
2022-08-30T00:49:54.630Z,0.40
2022-08-30T00:52:24.690Z,0.38
2022-08-30T00:54:53.695Z,0.20
2022-08-30T00:57:21.693Z,0.65
2022-08-30T00:59:51.094Z,0.40
2022-08-30T01:02:23.467Z,0.57
2022-08-30T01:04:52.451Z,0.30
2022-08-30T01:07:20.518Z,0.55
2022-08-30T01:09:48.522Z,0.60
2022-08-30T01:12:17.377Z,0.55
2022-08-30T01:14:47.581Z,0.40
2022-08-30T01:17:17.341Z,0.45
2022-08-30T01:19:53.430Z,0.40
2022-08-30T01:22:28.981Z,0.60
2022-08-30T01:25:01.370Z,0.50
2022-08-30T01:27:31.048Z,0.30
2022-08-30T01:29:59.928Z,0.40
2022-08-30T01:32:29.875Z,0.28
2022-08-30T01:34:58.562Z,0.45
2022-08-30T01:37:29.833Z,0.40
2022-08-30T01:39:59.362Z,0.50
2022-08-30T01:42:28.036Z,0.32
2022-08-30T01:44:56.071Z,0.43
2022-08-30T01:47:24.043Z,0.63
2022-08-30T01:49:52.164Z,0.40
2022-08-30T01:52:20.847Z,0.55
2022-08-30T01:54:48.857Z,0.17
2022-08-30T01:57:20.982Z,0.40
2022-08-30T01:59:50.213Z,0.32
2022-08-30T02:02:20.833Z,0.47
2022-08-30T02:04:48.730Z,0.63
2022-08-30T02:07:17.146Z,0.30
2022-08-30T02:09:46.267Z,0.40
2022-08-30T02:12:15.245Z,0.40
2022-08-30T02:14:44.747Z,0.40
2022-08-30T02:17:15.162Z,0.50
2022-08-30T02:19:44.156Z,0.28
2022-08-30T02:22:12.684Z,0.40
2022-08-30T02:24:40.856Z,0.52
2022-08-30T02:27:08.753Z,0.50
2022-08-30T02:29:36.746Z,0.57
2022-08-30T02:32:06.422Z,0.60
2022-08-30T02:34:34.316Z,0.40
2022-08-30T02:37:02.261Z,0.30
2022-08-30T02:39:30.206Z,0.40
2022-08-30T02:41:58.178Z,0.50
2022-08-30T02:44:26.042Z,0.55
2022-08-30T02:46:53.944Z,0.55
2022-08-30T02:49:33.137Z,0.40
2022-08-30T02:52:01.967Z,0.40
2022-08-30T02:54:32.921Z,0.32
2022-08-30T02:57:04.523Z,0.30
2022-08-30T02:59:32.817Z,0.45
2022-08-30T03:02:00.724Z,0.50
2022-08-30T03:04:30.098Z,0.40
2022-08-30T03:06:58.968Z,0.60
2022-08-30T03:09:26.822Z,0.63
2022-08-30T03:11:55.041Z,0.45
2022-08-30T03:14:22.944Z,0.63
2022-08-30T03:16:51.472Z,0.50
2022-08-30T03:19:20.230Z,0.40
2022-08-30T03:21:50.298Z,0.50
2022-08-30T03:24:18.193Z,0.53
2022-08-30T03:26:46.678Z,0.32
2022-08-30T03:29:15.092Z,0.40
2022-08-30T03:31:52.964Z,0.40
2022-08-30T03:34:21.814Z,0.70
2022-08-30T03:36:51.358Z,0.35
2022-08-30T03:39:19.323Z,0.40
2022-08-30T03:41:47.308Z,0.60
2022-08-30T03:44:15.183Z,0.55
2022-08-30T03:46:43.393Z,0.70
2022-08-30T03:49:11.260Z,0.50
2022-08-30T03:51:39.121Z,0.45
2022-08-30T03:54:08.406Z,0.60
2022-08-30T03:56:36.343Z,0.57
2022-08-30T03:59:05.025Z,0.40
2022-08-30T04:01:33.148Z,0.50
2022-08-30T04:04:01.202Z,0.60
2022-08-30T04:06:30.597Z,0.70
2022-08-30T04:08:58.410Z,0.40
2022-08-30T04:11:27.706Z,0.40
2022-08-30T04:13:56.658Z,0.50
2022-08-30T04:16:25.018Z,0.45
2022-08-30T04:18:53.584Z,0.52
2022-08-30T04:21:21.515Z,0.43
2022-08-30T04:23:49.440Z,0.40
2022-08-30T04:26:17.507Z,0.60
2022-08-30T04:28:46.736Z,0.45
2022-08-30T04:31:16.830Z,0.60
2022-08-30T04:33:44.952Z,0.50
2022-08-30T04:36:13.735Z,0.50
2022-08-30T04:38:42.551Z,0.45
2022-08-30T04:41:13.090Z,0.40
2022-08-30T04:43:41.179Z,0.50
2022-08-30T04:46:10.703Z,0.60
2022-08-30T04:48:39.171Z,0.40
2022-08-30T04:51:08.762Z,0.43
2022-08-30T04:53:37.763Z,0.75
2022-08-30T04:56:09.065Z,0.50
2022-08-30T04:58:37.018Z,0.50
2022-08-30T05:01:05.731Z,0.60
2022-08-30T05:03:39.233Z,0.50
2022-08-30T05:06:07.518Z,0.60
2022-08-30T05:08:35.442Z,0.50
2022-08-30T05:11:05.773Z,0.50
2022-08-30T05:13:35.699Z,0.50
2022-08-30T05:16:07.824Z,0.60
2022-08-30T05:18:35.894Z,0.50
2022-08-30T05:21:11.403Z,0.40
2022-08-30T05:23:41.246Z,0.43
2022-08-30T05:26:11.275Z,0.47
2022-08-30T05:28:39.353Z,0.70
2022-08-30T05:31:15.366Z,0.50
2022-08-30T05:33:43.834Z,0.40
2022-08-30T05:36:15.926Z,0.70
2022-08-30T05:38:44.734Z,0.32
2022-08-30T05:41:13.025Z,0.68
2022-08-30T05:43:41.284Z,0.40
2022-08-30T05:46:11.701Z,0.30
2022-08-30T05:48:40.539Z,0.60
2022-08-30T05:51:10.915Z,0.60
2022-08-30T05:53:41.765Z,0.77
2022-08-30T05:56:11.852Z,0.50
2022-08-30T05:58:40.650Z,0.63
2022-08-30T06:01:20.309Z,0.55
2022-08-30T06:03:48.907Z,0.60
2022-08-30T06:06:16.920Z,0.55
2022-08-30T06:08:47.388Z,0.60
2022-08-30T06:11:16.957Z,0.60
2022-08-30T06:13:44.855Z,0.57
2022-08-30T06:16:14.142Z,0.60
2022-08-30T06:18:42.157Z,0.50
2022-08-30T06:21:16.163Z,0.60
2022-08-30T06:23:44.663Z,0.47
2022-08-30T06:26:14.485Z,0.32
2022-08-30T06:28:42.409Z,0.70
2022-08-30T06:31:11.598Z,0.47
2022-08-30T06:33:40.290Z,0.50
2022-08-30T06:36:11.254Z,0.38
2022-08-30T06:38:40.030Z,0.75
2022-08-30T06:41:09.123Z,0.50
2022-08-30T06:43:38.607Z,0.73
2022-08-30T06:46:08.256Z,0.65
2022-08-30T06:48:36.226Z,0.73
2022-08-30T06:51:04.438Z,0.35
2022-08-30T06:53:32.547Z,0.45
2022-08-30T06:56:02.419Z,0.60
2022-08-30T06:58:31.286Z,0.68
2022-08-30T07:01:00.664Z,0.50
2022-08-30T07:03:28.848Z,0.50
2022-08-30T07:05:57.943Z,0.38
2022-08-30T07:08:27.213Z,0.50
2022-08-30T07:10:56.223Z,0.63
2022-08-30T07:13:24.885Z,0.82
2022-08-30T07:15:53.106Z,0.50
2022-08-30T07:18:40.215Z,0.75
2022-08-30T07:21:10.535Z,0.82
2022-08-30T07:23:38.871Z,0.50
2022-08-30T07:26:08.155Z,0.73
2022-08-30T07:28:38.694Z,0.60
2022-08-30T07:33:41.395Z,0.43
2022-08-30T07:36:09.794Z,0.63
2022-08-30T07:38:37.667Z,0.50
2022-08-30T07:41:06.463Z,0.65
2022-08-30T07:43:35.970Z,0.70
2022-08-30T07:46:05.795Z,0.50
2022-08-30T07:48:34.423Z,0.70
2022-08-30T07:51:05.539Z,0.68
2022-08-30T07:53:33.612Z,0.63
2022-08-30T07:56:04.871Z,0.70
2022-08-30T07:58:33.384Z,0.60
2022-08-30T08:01:02.330Z,0.60
2022-08-30T08:03:30.942Z,0.50
2022-08-30T08:05:59.301Z,0.40
2022-08-30T08:08:28.542Z,0.63
2022-08-30T08:10:56.941Z,0.70
2022-08-30T08:13:28.006Z,0.90
2022-08-30T08:16:00.476Z,1.00
2022-08-30T08:18:28.801Z,0.95
2022-08-30T08:20:56.950Z,1.00
2022-08-30T08:23:25.101Z,0.70
2022-08-30T08:25:54.726Z,0.77
2022-08-30T08:28:23.036Z,0.65
2022-08-30T08:30:51.319Z,0.75
2022-08-30T08:33:19.948Z,1.02
2022-08-30T08:35:48.310Z,0.70
2022-08-30T08:38:16.427Z,0.28
2022-08-30T08:40:53.638Z,0.70
2022-08-30T08:43:27.022Z,0.47
2022-08-30T08:46:02.115Z,0.70
2022-08-30T08:48:51.813Z,0.70
2022-08-30T08:51:45.515Z,0.70
2022-08-30T08:54:19.902Z,0.60
2022-08-30T08:56:47.991Z,0.60
2022-08-30T08:59:18.468Z,0.70
2022-08-30T09:01:47.578Z,1.00
2022-08-30T09:04:20.655Z,0.95
2022-08-30T09:06:57.845Z,0.45
2022-08-30T09:09:30.233Z,0.63
2022-08-30T09:11:58.696Z,0.70
2022-08-30T09:14:30.921Z,0.63
2022-08-30T09:17:03.007Z,0.70
2022-08-30T09:19:41.483Z,0.50
2022-08-30T09:22:26.222Z,0.85
2022-08-30T09:25:00.555Z,1.02
2022-08-30T09:27:33.115Z,0.75
2022-08-30T09:30:06.536Z,1.02
2022-08-30T09:32:38.334Z,0.52
2022-08-30T09:35:10.075Z,0.75
2022-08-30T09:37:47.062Z,0.73
2022-08-30T09:40:23.205Z,0.80
2022-08-30T09:43:03.243Z,0.80
2022-08-30T09:45:36.568Z,0.77
2022-08-30T09:48:23.460Z,0.73
2022-08-30T09:50:59.427Z,0.75
2022-08-30T09:53:34.309Z,0.60
2022-08-30T09:56:10.234Z,0.60
2022-08-30T09:58:54.584Z,0.77
2022-08-30T10:01:30.491Z,1.00
2022-08-30T10:04:06.667Z,0.90
2022-08-30T10:06:42.693Z,1.20
2022-08-30T10:09:21.120Z,1.10
2022-08-30T10:11:57.618Z,1.05
2022-08-30T10:14:52.693Z,0.80
2022-08-30T10:17:41.243Z,1.15
2022-08-30T10:20:20.263Z,0.60
2022-08-30T10:22:53.195Z,0.70
2022-08-30T10:25:26.985Z,0.98
2022-08-30T10:27:59.676Z,0.57
2022-08-30T10:30:31.608Z,0.73
2022-08-30T10:33:07.000Z,1.27
2022-08-30T10:35:40.965Z,1.20
2022-08-30T10:38:19.771Z,0.90
2022-08-30T10:41:08.929Z,0.88
2022-08-30T10:43:46.751Z,1.15
2022-08-30T10:46:25.448Z,0.90
2022-08-30T10:48:57.589Z,1.02
2022-08-30T10:51:33.666Z,1.13
2022-08-30T10:54:09.261Z,0.90
2022-08-30T10:56:41.498Z,0.98
2022-08-30T10:59:11.943Z,0.90
2022-08-30T11:02:11.416Z,1.08
2022-08-30T11:05:04.400Z,0.70
2022-08-30T11:07:41.902Z,0.90
2022-08-30T11:10:23.498Z,1.02
2022-08-30T11:13:00.718Z,1.00
2022-08-30T11:15:31.466Z,1.05
2022-08-30T11:18:02.836Z,1.67
2022-08-30T11:20:40.982Z,1.40
2022-08-30T11:23:32.737Z,0.88
2022-08-30T11:26:03.879Z,0.57
2022-08-30T11:29:03.405Z,1.15
2022-08-30T11:31:38.473Z,1.52
2022-08-30T11:34:09.670Z,1.00
2022-08-30T11:37:10.285Z,1.00
2022-08-30T11:39:57.169Z,1.02
2022-08-30T11:42:44.483Z,1.40
2022-08-30T11:46:00.220Z,1.23
2022-08-30T11:48:54.384Z,1.10
2022-08-30T11:52:23.751Z,1.30
2022-08-30T11:55:02.499Z,1.00
2022-08-30T11:57:38.916Z,1.42
2022-08-30T12:00:12.327Z,1.30
2022-08-30T12:02:48.693Z,0.98
2022-08-30T12:05:48.015Z,0.70
2022-08-30T12:08:44.746Z,0.93
2022-08-30T12:12:02.296Z,0.95
2022-08-30T12:14:54.438Z,0.82
2022-08-30T12:17:48.190Z,0.90
2022-08-30T12:20:28.354Z,0.93
2022-08-30T12:22:58.146Z,1.20
2022-08-30T12:25:30.781Z,0.82
2022-08-30T12:28:14.174Z,1.33
2022-08-30T12:30:43.734Z,1.13
2022-08-30T12:33:24.136Z,0.93
2022-08-30T12:35:59.401Z,1.20
2022-08-30T12:38:29.690Z,1.02
2022-08-30T12:41:00.210Z,0.82
2022-08-30T12:43:40.436Z,0.93
2022-08-30T12:46:16.000Z,1.10
2022-08-30T12:48:45.209Z,1.00
2022-08-30T12:51:36.159Z,1.02
2022-08-30T12:54:08.339Z,0.80
2022-08-30T12:56:55.615Z,1.13
2022-08-30T12:59:54.013Z,1.08
2022-08-30T13:02:29.138Z,1.00
2022-08-30T13:04:58.468Z,1.00
2022-08-30T13:07:33.319Z,0.90
2022-08-30T13:10:12.067Z,0.80
2022-08-30T13:12:40.337Z,0.90
2022-08-30T13:15:17.861Z,0.90
2022-08-30T13:17:47.830Z,1.08
2022-08-30T13:20:25.492Z,1.05
2022-08-30T13:23:06.218Z,1.00
2022-08-30T13:28:04.418Z,0.68
2022-08-30T13:30:32.734Z,1.00
2022-08-30T13:33:02.375Z,1.08
2022-08-30T13:35:31.525Z,0.87
2022-08-30T13:38:01.963Z,1.00
2022-08-30T13:40:30.416Z,0.90
2022-08-30T13:42:58.603Z,1.10
2022-08-30T13:45:42.561Z,0.93
2022-08-30T13:48:13.443Z,1.00
2022-08-30T13:53:11.236Z,0.98
2022-08-30T13:55:41.402Z,0.90
2022-08-30T13:58:10.694Z,0.90
2022-08-30T14:00:41.866Z,1.05
2022-08-30T14:03:13.063Z,1.25
2022-08-30T14:06:00.592Z,0.95
2022-08-30T14:08:48.567Z,0.97
2022-08-30T14:11:20.919Z,1.17
2022-08-30T14:16:40.410Z,0.90
2022-08-30T14:19:12.172Z,1.05
2022-08-30T14:21:40.204Z,1.00
2022-08-30T14:24:08.787Z,1.00
2022-08-30T14:26:39.399Z,1.02
2022-08-30T14:29:10.198Z,1.20
2022-08-30T14:31:38.875Z,0.95
2022-08-30T14:34:07.806Z,0.90
2022-08-30T14:36:39.438Z,1.23
2022-08-30T14:39:09.216Z,0.90
2022-08-30T14:41:43.760Z,0.80
2022-08-30T14:44:12.532Z,0.90
2022-08-30T14:46:40.961Z,0.85
2022-08-30T14:49:10.248Z,0.88
2022-08-30T14:51:41.480Z,0.90
2022-08-30T14:54:10.347Z,0.90
2022-08-30T14:56:39.376Z,0.60
2022-08-30T14:59:07.517Z,0.98
2022-08-30T15:01:37.141Z,0.90
2022-08-30T15:04:07.472Z,1.02
2022-08-30T15:06:35.889Z,0.93
2022-08-30T15:09:06.797Z,1.13
2022-08-30T15:11:35.414Z,0.95
2022-08-30T15:14:03.306Z,1.20
2022-08-30T15:16:34.811Z,0.90
2022-08-30T15:19:03.599Z,1.10
2022-08-30T15:21:34.224Z,0.60
2022-08-30T15:24:06.726Z,0.88
2022-08-30T15:26:36.166Z,0.90
2022-08-30T15:29:04.716Z,0.90
2022-08-30T15:31:32.898Z,0.70
2022-08-30T15:34:01.254Z,0.95
2022-08-30T15:36:30.151Z,1.15
2022-08-30T15:38:59.923Z,0.80
2022-08-30T15:41:29.889Z,0.77
2022-08-30T15:43:59.445Z,1.00
2022-08-30T15:46:31.872Z,0.87
2022-08-30T15:49:03.783Z,0.90
2022-08-30T15:51:41.940Z,0.90
2022-08-30T15:54:15.298Z,1.10
2022-08-30T15:59:17.427Z,0.70
2022-08-30T16:01:47.647Z,0.90
2022-08-30T16:04:17.044Z,0.93
2022-08-30T16:09:14.925Z,0.60
2022-08-30T16:11:43.149Z,1.00
2022-08-30T16:14:12.452Z,0.85
2022-08-30T16:16:43.613Z,0.75
2022-08-30T16:19:11.678Z,1.00
2022-08-30T16:21:41.535Z,0.93
2022-08-30T16:24:13.626Z,1.00
2022-08-30T16:26:42.954Z,0.90
2022-08-30T16:29:16.398Z,0.70
2022-08-30T16:31:45.377Z,0.93
2022-08-30T16:34:17.654Z,0.80
2022-08-30T16:36:46.170Z,0.93
2022-08-30T16:39:14.186Z,1.17
2022-08-30T16:41:44.744Z,0.70
2022-08-30T16:44:15.903Z,0.90
2022-08-30T16:46:53.796Z,1.00
2022-08-30T16:49:22.856Z,1.13
2022-08-30T16:51:50.826Z,0.85
2022-08-30T16:54:20.721Z,0.70
2022-08-30T16:56:48.615Z,0.88
2022-08-30T16:59:18.875Z,0.70
2022-08-30T17:01:48.242Z,0.80
2022-08-30T17:04:18.375Z,0.90
2022-08-30T17:06:47.746Z,1.05
2022-08-30T17:09:18.074Z,0.80
2022-08-30T17:11:46.513Z,1.40
2022-08-30T17:14:14.602Z,0.82
2022-08-30T17:16:43.851Z,0.85
2022-08-30T17:19:13.476Z,1.00
2022-08-30T17:21:41.366Z,0.90
2022-08-30T17:24:09.275Z,0.73
2022-08-30T17:26:38.344Z,0.90
2022-08-30T17:29:07.778Z,0.90
2022-08-30T17:31:37.433Z,0.70
2022-08-30T17:34:06.934Z,0.97
2022-08-30T17:36:36.988Z,0.90
2022-08-30T17:39:10.915Z,0.90
2022-08-30T17:41:39.965Z,1.13
2022-08-30T17:44:13.785Z,0.80
2022-08-30T17:46:41.987Z,1.02
2022-08-30T17:49:11.850Z,1.17
2022-08-30T17:51:42.674Z,0.75
2022-08-30T17:54:11.976Z,0.98
2022-08-30T17:56:39.908Z,0.73
2022-08-30T17:59:09.197Z,1.10
2022-08-30T18:01:37.888Z,0.88
2022-08-30T18:04:06.652Z,0.73
2022-08-30T18:06:36.502Z,0.60
2022-08-30T18:09:06.620Z,1.00
2022-08-30T18:11:36.189Z,0.98
2022-08-30T18:14:05.103Z,0.93
2022-08-30T18:16:33.545Z,0.65
2022-08-30T18:19:03.841Z,0.90
2022-08-30T18:21:31.759Z,1.00
2022-08-30T18:24:01.506Z,0.70
2022-08-30T18:26:29.569Z,0.80
2022-08-30T18:28:57.378Z,1.15
2022-08-30T18:31:27.376Z,0.70
2022-08-30T18:33:58.885Z,0.90
2022-08-30T18:36:28.198Z,0.77
2022-08-30T18:38:56.532Z,0.65
2022-08-30T18:41:27.558Z,0.70
2022-08-30T18:44:23.975Z,0.73
2022-08-30T18:46:55.831Z,0.73
2022-08-30T18:49:24.527Z,0.80
2022-08-30T18:51:52.489Z,0.80
2022-08-30T18:54:20.663Z,0.60
2022-08-30T18:56:50.083Z,0.75
2022-08-30T18:59:20.096Z,1.00
2022-08-30T19:01:49.169Z,0.63
2022-08-30T19:04:29.722Z,0.90
2022-08-30T19:07:05.278Z,0.77
2022-08-30T19:09:33.257Z,0.70
2022-08-30T19:12:02.904Z,0.93
2022-08-30T19:14:31.299Z,0.87
2022-08-30T19:17:02.025Z,0.88
2022-08-30T19:19:32.685Z,0.95
2022-08-30T19:22:02.922Z,0.90
2022-08-30T19:24:30.770Z,0.90
2022-08-30T19:27:00.351Z,0.80
2022-08-30T19:29:29.712Z,0.65
2022-08-30T19:31:58.800Z,0.70
2022-08-30T19:34:26.634Z,0.63
2022-08-30T19:36:55.963Z,0.90
2022-08-30T19:39:24.124Z,0.90
2022-08-30T19:41:52.066Z,0.73
2022-08-30T19:44:19.985Z,0.93
2022-08-30T19:46:51.547Z,0.80
2022-08-30T19:49:19.634Z,0.63
2022-08-30T19:51:49.895Z,0.85
2022-08-30T19:54:17.997Z,0.60
2022-08-30T19:56:45.890Z,0.70
2022-08-30T19:59:16.163Z,0.82
2022-08-30T20:01:45.786Z,0.80
2022-08-30T20:04:15.899Z,0.70
2022-08-30T20:06:44.883Z,0.67
2022-08-30T20:09:12.936Z,0.50
2022-08-30T20:11:42.236Z,0.90
2022-08-30T20:14:13.411Z,0.93
2022-08-30T20:19:10.852Z,0.82
2022-08-30T20:21:40.058Z,0.70
2022-08-30T20:24:10.091Z,0.55
2022-08-30T20:26:38.479Z,0.70
2022-08-30T20:29:07.374Z,0.75
2022-08-30T20:31:36.054Z,0.70
2022-08-30T20:34:05.048Z,0.65
2022-08-30T20:36:33.597Z,0.60
2022-08-30T20:39:04.418Z,0.82
2022-08-30T20:44:01.790Z,0.80
2022-08-30T20:46:34.018Z,0.60
2022-08-30T20:49:03.305Z,0.90
2022-08-30T20:51:31.238Z,0.60
2022-08-30T20:54:03.997Z,0.65
2022-08-30T20:56:32.218Z,0.85
2022-08-30T20:59:01.879Z,0.70
2022-08-30T21:01:30.986Z,0.70
2022-08-30T21:03:59.337Z,0.73
2022-08-30T21:06:27.193Z,0.73
2022-08-30T21:08:55.141Z,0.90
2022-08-30T21:11:24.386Z,0.60
2022-08-30T21:13:52.639Z,0.95
2022-08-30T21:16:22.070Z,0.63
2022-08-30T21:18:50.527Z,0.60
2022-08-30T21:21:21.419Z,0.65
2022-08-30T21:23:50.081Z,0.60
2022-08-30T21:26:19.175Z,0.75
2022-08-30T21:28:49.332Z,0.77
2022-08-30T21:31:19.360Z,0.63
2022-08-30T21:33:48.666Z,0.50
2022-08-30T21:36:34.737Z,0.90
2022-08-30T21:39:02.949Z,0.55
2022-08-30T21:41:32.357Z,0.65
2022-08-30T21:44:03.254Z,0.80
2022-08-30T21:49:02.219Z,0.50
2022-08-30T21:51:32.546Z,0.70
2022-08-30T21:54:02.391Z,0.52
2022-08-30T21:56:30.771Z,0.63
2022-08-30T21:58:58.665Z,0.80
2022-08-30T22:01:30.351Z,0.70
2022-08-30T22:04:00.113Z,0.55
2022-08-30T22:06:31.061Z,0.75
2022-08-30T22:09:01.057Z,0.68
2022-08-30T22:11:30.986Z,0.60
2022-08-30T22:13:59.465Z,0.68
2022-08-30T22:16:30.601Z,0.70
2022-08-30T22:18:58.841Z,0.60
2022-08-30T22:21:28.977Z,0.68
2022-08-30T22:23:57.682Z,0.38
2022-08-30T22:26:26.527Z,0.60
2022-08-30T22:28:55.209Z,0.70
2022-08-30T22:31:24.265Z,0.70
2022-08-30T22:33:55.223Z,0.95
2022-08-30T22:39:02.285Z,0.40
2022-08-30T22:41:32.694Z,0.68
2022-08-30T22:44:01.974Z,0.88
2022-08-30T22:46:33.850Z,0.65
2022-08-30T22:49:05.397Z,0.50
2022-08-30T22:51:34.002Z,0.80
2022-08-30T22:54:02.834Z,1.05
2022-08-30T22:56:31.197Z,0.90
2022-08-30T22:58:59.160Z,0.88
2022-08-30T23:01:30.683Z,0.68
2022-08-30T23:04:00.974Z,0.70
2022-08-30T23:06:30.978Z,0.80
2022-08-30T23:09:00.507Z,1.10
2022-08-30T23:11:29.477Z,0.65
2022-08-30T23:14:00.989Z,0.80
2022-08-30T23:16:28.940Z,0.50
2022-08-30T23:18:56.863Z,0.50
2022-08-30T23:21:27.010Z,0.60
2022-08-30T23:24:15.768Z,0.75
2022-08-30T23:27:03.068Z,0.60
2022-08-30T23:29:49.126Z,0.65
2022-08-30T23:32:34.771Z,0.60
2022-08-30T23:35:20.004Z,0.70
2022-08-30T23:38:10.360Z,0.70
2022-08-30T23:40:57.289Z,0.80
2022-08-30T23:43:42.447Z,0.73
2022-08-30T23:46:27.734Z,0.82
2022-08-30T23:49:12.874Z,0.60
2022-08-30T23:51:58.152Z,0.70
2022-08-30T23:54:44.257Z,0.82
2022-08-30T23:57:31.192Z,0.82
